Terminal Aerodrome Forecast
Issued by NWS Sterling, VA

Current Version | Previous Version | Graphics & Text | Print | Product List | Glossary On
Versions: 1 2 3 4 5 6 7 8 9 10 11 12 13 14 15 16 17 18 19 20 21 22 23 24 25 26 27 28 29 30 31
000
FTUS41 KLWX 040538
TAFIAD
TAF
KIAD 040538Z 0406/0512 20010G18KT P6SM BKN060
     FM041000 25008KT 3SM -SHRA BR OVC025
     FM041700 VRB04KT 2SM -RA BR OVC015
     FM050300 36005KT 1SM -RASN OVC008
     FM050900 34008KT 3/4SM -SNPL OVC006=

USA.gov is the U.S. government's official web portal to all federal, state and local government web resources and services.